Terminal Aerodrome Forecast
Issued by NWS

Home | Current Version | Previous Version | Text Only | Print | Product List | Glossary On
Versions: 1 2 3 4 5 6 7 8 9 10 11 12 13 14 15 16 17 18 19 20 21 22 23 24
000
FTUS44 KBMX 190520
TAFTOI
TAF
KTOI 190520Z 1906/2006 VRB04KT 6SM BR VCSH SCT015 BKN035
     FM190700 VRB04KT P6SM -RA BKN020
     FM190900 15008KT 5SM SHRA VCTS OVC007CB
     FM191200 18008KT 2SM BR OVC007
     FM191500 21009KT P6SM OVC015
     FM191800 20007KT P6SM OVC050=

USA.gov is the U.S. government's official web portal to all federal, state and local government web resources and services.